Time;durP1;ratioP1;P1;durP2;ratioP2;P2;SDS_P1;SDS_P2;PMS_P1;PMS_P2;Temp;Humidity;BMP_temperature;BMP_pressure;BME280_temperature;BME280_humidity;BME280_pressure;Samples;Min_cycle;Max_cycle;Signal;HPM_P1;HPM_P2
2023/08/29 00:01:40;;;;;;;1.80;1.70;;;;;;;25.73;61.94;98650.88;5111275;28;20234;-74
2023/08/29 00:04:09;;;;;;;1.23;1.13;;;;;;;25.68;61.79;98645.31;5110767;28;20195;-73
2023/08/29 00:06:36;;;;;;;1.60;1.50;;;;;;;25.66;61.39;98652.50;5111012;28;20212;-73
2023/08/29 00:09:03;;;;;;;1.20;1.10;;;;;;;25.66;61.83;98656.94;5111513;28;20187;-73
2023/08/29 00:11:30;;;;;;;1.70;1.60;;;;;;;25.66;62.25;98651.69;5111981;28;20193;-73
2023/08/29 00:13:57;;;;;;;1.63;1.53;;;;;;;25.66;61.90;98657.75;5111884;28;20194;-74
2023/08/29 00:16:24;;;;;;;1.73;1.70;;;;;;;25.64;62.17;98659.72;5111028;28;21002;-73
2023/08/29 00:18:51;;;;;;;1.43;1.37;;;;;;;25.53;61.53;98641.63;5111650;28;20207;-75
2023/08/29 00:21:19;;;;;;;1.47;1.37;;;;;;;25.63;62.22;98663.31;5113133;27;20586;-74
2023/08/29 00:23:48;;;;;;;1.67;1.57;;;;;;;25.62;62.33;98677.44;5126261;27;20669;-74
2023/08/29 00:26:15;;;;;;;1.50;1.40;;;;;;;25.63;62.86;98671.19;5111242;28;20194;-74
2023/08/29 00:28:41;;;;;;;1.63;1.53;;;;;;;25.59;63.01;98678.56;5111041;28;20329;-74
2023/08/29 00:31:08;;;;;;;1.13;1.13;;;;;;;25.57;63.42;98679.72;5111056;28;20198;-75
2023/08/29 00:33:35;;;;;;;1.43;1.40;;;;;;;25.53;62.66;98675.75;5110924;28;20201;-74
2023/08/29 00:36:02;;;;;;;1.63;1.50;;;;;;;25.50;63.31;98670.81;5110593;28;20244;-73
2023/08/29 00:38:30;;;;;;;1.30;1.30;;;;;;;25.41;63.62;98677.00;5111100;28;20219;-73
2023/08/29 00:40:59;;;;;;;1.47;1.27;;;;;;;25.37;63.06;98667.78;5111491;28;20633;-74
2023/08/29 00:43:26;;;;;;;1.37;1.37;;;;;;;25.31;63.43;98671.03;5110801;28;20199;-73
2023/08/29 00:45:53;;;;;;;1.13;1.13;;;;;;;25.22;63.41;98674.59;5105581;28;20205;-73
2023/08/29 00:48:21;;;;;;;1.43;1.43;;;;;;;25.20;63.15;98671.31;5111937;28;20179;-73
2023/08/29 00:50:48;;;;;;;1.37;1.37;;;;;;;25.16;63.20;98662.13;5111575;28;20195;-73
2023/08/29 00:53:16;;;;;;;1.60;1.50;;;;;;;25.06;63.16;98664.84;5111558;28;20190;-73
2023/08/29 00:55:44;;;;;;;1.70;1.43;;;;;;;24.94;63.22;98656.41;5111218;28;20236;-74
2023/08/29 00:58:11;;;;;;;1.57;1.47;;;;;;;24.90;64.49;98657.72;5111128;28;20696;-74
2023/08/29 01:00:38;;;;;;;1.30;1.30;;;;;;;24.92;64.15;98668.84;5121013;27;20207;-74
2023/08/29 01:03:06;;;;;;;1.13;1.07;;;;;;;24.91;65.03;98672.44;5118141;27;20740;-73
2023/08/29 01:05:32;;;;;;;1.50;1.40;;;;;;;24.92;65.38;98668.84;5112112;27;20702;-74
2023/08/29 01:08:03;;;;;;;1.60;1.53;;;;;;;24.90;65.30;98668.19;5110572;28;20284;-74
2023/08/29 01:10:37;;;;;;;1.30;1.30;;;;;;;24.88;66.05;98661.47;5110564;28;20657;-74
2023/08/29 01:13:15;;;;;;;1.43;1.43;;;;;;;24.86;65.47;98653.75;5109450;28;20224;-73
2023/08/29 01:15:44;;;;;;;1.77;1.70;;;;;;;24.82;65.78;98657.66;5110699;28;20274;-73
2023/08/29 01:18:14;;;;;;;1.33;1.33;;;;;;;24.76;66.43;98655.59;5111254;28;20208;-73
2023/08/29 01:20:41;;;;;;;1.87;1.77;;;;;;;24.73;66.16;98658.53;5110660;28;20218;-74
2023/08/29 01:23:13;;;;;;;1.83;1.73;;;;;;;24.72;66.63;98646.41;5110811;28;20195;-73
2023/08/29 01:25:47;;;;;;;1.57;1.57;;;;;;;24.72;67.24;98648.22;5110705;28;20278;-74
2023/08/29 01:28:16;;;;;;;2.00;1.83;;;;;;;24.68;67.22;98655.56;5111257;28;20561;-73
2023/08/29 01:30:43;;;;;;;1.40;1.30;;;;;;;24.67;67.24;98648.66;5110460;28;20206;-75
2023/08/29 01:33:10;;;;;;;1.80;1.53;;;;;;;24.64;67.45;98646.34;5109858;28;20254;-74
2023/08/29 01:35:43;;;;;;;1.17;1.17;;;;;;;24.61;67.58;98638.81;5110507;28;20179;-74
2023/08/29 01:38:10;;;;;;;2.30;1.90;;;;;;;24.62;67.73;98643.06;5114450;28;20273;-73
2023/08/29 01:40:37;;;;;;;2.07;1.97;;;;;;;24.63;67.82;98643.88;5114774;28;20215;-73
2023/08/29 01:43:04;;;;;;;1.73;1.63;;;;;;;24.59;67.95;98632.06;5114458;27;20190;-73
2023/08/29 01:45:34;;;;;;;1.73;1.63;;;;;;;24.53;68.35;98625.63;5114755;27;20194;-73
2023/08/29 01:48:02;;;;;;;2.00;1.90;;;;;;;24.48;68.32;98630.50;5114568;28;20206;-73
2023/08/29 01:50:30;;;;;;;1.73;1.50;;;;;;;24.46;68.56;98645.56;5114682;28;20270;-74
2023/08/29 01:52:57;;;;;;;1.60;1.50;;;;;;;24.45;68.87;98643.94;5114928;27;20267;-74
2023/08/29 01:55:25;;;;;;;1.47;1.47;;;;;;;24.44;69.22;98642.28;5114423;28;20742;-74
2023/08/29 01:57:54;;;;;;;1.57;1.47;;;;;;;24.42;68.82;98636.38;5114728;28;20218;-74
2023/08/29 02:00:22;;;;;;;1.50;1.40;;;;;;;24.39;68.68;98627.03;5113704;28;20202;-74
2023/08/29 02:02:53;;;;;;;1.40;1.33;;;;;;;24.38;69.12;98624.53;5114361;28;20191;-73
2023/08/29 02:05:20;;;;;;;2.63;1.60;;;;;;;24.34;69.14;98625.81;5114389;28;20264;-73
2023/08/29 02:07:46;;;;;;;1.50;1.40;;;;;;;24.27;68.75;98635.25;5113304;27;20218;-73
2023/08/29 02:10:14;;;;;;;1.93;1.47;;;;;;;24.23;69.28;98628.69;5114011;28;20743;-73
2023/08/29 02:12:41;;;;;;;1.80;1.70;;;;;;;24.11;69.82;98624.59;5111305;28;20240;-73
2023/08/29 02:15:09;;;;;;;1.87;1.77;;;;;;;24.04;69.41;98622.56;5113748;28;20179;-75
2023/08/29 02:17:36;;;;;;;1.77;1.67;;;;;;;24.05;69.58;98624.22;5119383;27;20191;-73
2023/08/29 02:20:05;;;;;;;2.50;1.80;;;;;;;24.04;69.50;98625.19;5114593;28;20643;-74
2023/08/29 02:22:32;;;;;;;1.33;1.33;;;;;;;24.04;69.20;98627.81;5113583;28;20772;-73
2023/08/29 02:25:00;;;;;;;1.73;1.63;;;;;;;24.01;69.06;98624.66;5114091;28;20240;-73
2023/08/29 02:27:27;;;;;;;1.50;1.47;;;;;;;23.94;69.50;98624.44;5113784;28;20187;-74
2023/08/29 02:29:54;;;;;;;1.80;1.70;;;;;;;23.85;69.78;98620.09;5114542;27;20191;-73
2023/08/29 02:32:21;;;;;;;1.40;1.37;;;;;;;23.84;69.73;98618.47;5114754;28;20218;-73
2023/08/29 02:34:48;;;;;;;2.13;1.90;;;;;;;23.82;70.03;98615.16;5116388;27;20198;-73
2023/08/29 02:37:16;;;;;;;1.70;1.60;;;;;;;23.81;70.05;98623.19;5113364;28;20300;-73
2023/08/29 02:39:43;;;;;;;2.07;1.73;;;;;;;23.76;70.23;98615.75;5112819;28;20684;-74
2023/08/29 02:42:09;;;;;;;1.77;1.67;;;;;;;23.74;70.08;98615.09;5113111;28;20219;-74
2023/08/29 02:44:36;;;;;;;1.57;1.47;;;;;;;23.72;70.83;98614.41;5112680;28;20191;-74
2023/08/29 02:47:03;;;;;;;2.17;2.03;;;;;;;23.71;70.54;98606.72;5112520;28;20202;-73
2023/08/29 02:49:31;;;;;;;1.67;1.57;;;;;;;23.71;70.00;98607.56;5112601;28;20242;-74
2023/08/29 02:51:58;;;;;;;1.70;1.60;;;;;;;23.67;70.44;98600.97;5115881;27;20267;-73
2023/08/29 02:54:27;;;;;;;1.63;1.57;;;;;;;23.60;70.76;98599.91;5112192;27;20777;-76
2023/08/29 02:56:53;;;;;;;2.13;1.90;;;;;;;23.62;70.47;98611.03;5112262;28;20225;-73
2023/08/29 02:59:26;;;;;;;1.53;1.50;;;;;;;23.58;70.69;98607.09;5112775;28;20674;-73
2023/08/29 03:01:53;;;;;;;3.03;2.00;;;;;;;23.61;70.77;98612.03;5112872;27;20216;-73
2023/08/29 03:04:20;;;;;;;1.53;1.43;;;;;;;23.61;70.21;98606.78;5112548;28;20760;-73
2023/08/29 03:06:46;;;;;;;2.70;1.50;;;;;;;23.58;70.56;98601.84;5115178;27;20287;-73
2023/08/29 03:09:13;;;;;;;1.53;1.53;;;;;;;23.48;70.93;98590.63;5113081;27;20198;-74
2023/08/29 03:11:42;;;;;;;1.40;1.40;;;;;;;23.47;70.63;98595.03;5113109;28;20194;-74
2023/08/29 03:14:09;;;;;;;2.37;2.13;;;;;;;23.46;71.20;98603.00;5112555;28;20233;-74
2023/08/29 03:16:35;;;;;;;3.03;1.60;;;;;;;23.44;71.23;98605.78;5112269;28;20730;-74
2023/08/29 03:19:03;;;;;;;1.60;1.57;;;;;;;23.44;71.25;98607.56;5112609;28;20260;-73
2023/08/29 03:21:29;;;;;;;1.73;1.63;;;;;;;23.43;71.18;98600.69;5112804;28;20697;-73
2023/08/29 03:23:56;;;;;;;3.83;1.53;;;;;;;23.46;71.47;98608.22;5112407;28;20581;-73
2023/08/29 03:26:23;;;;;;;1.93;1.63;;;;;;;23.45;71.35;98611.84;5112905;27;20282;-73
2023/08/29 03:28:51;;;;;;;3.47;1.60;;;;;;;23.43;71.17;98609.34;5112203;28;20190;-73
2023/08/29 03:31:18;;;;;;;1.60;1.50;;;;;;;23.43;71.11;98611.97;5113993;27;20198;-73
2023/08/29 03:33:46;;;;;;;2.80;1.97;;;;;;;23.37;71.77;98596.00;5131660;27;20197;-73
2023/08/29 03:36:14;;;;;;;1.83;1.73;;;;;;;23.37;72.03;98598.63;5112847;28;20191;-73
2023/08/29 03:38:41;;;;;;;1.60;1.60;;;;;;;23.39;71.44;98613.19;5109863;28;20211;-73
2023/08/29 03:41:08;;;;;;;2.17;2.07;;;;;;;23.40;72.10;98614.06;5111383;28;20713;-74
2023/08/29 03:43:36;;;;;;;2.17;2.00;;;;;;;23.38;72.15;98615.97;5111984;28;20187;-73
2023/08/29 03:46:06;;;;;;;4.53;1.80;;;;;;;23.35;72.61;98611.03;5109876;28;20277;-73
2023/08/29 03:48:34;;;;;;;6.77;2.07;;;;;;;23.30;72.86;98610.63;5112045;28;20191;-73
2023/08/29 03:51:05;;;;;;;2.70;1.77;;;;;;;23.29;72.85;98606.38;5111289;28;20226;-74
2023/08/29 03:53:33;;;;;;;1.90;1.80;;;;;;;23.27;73.07;98603.91;5112031;28;20207;-73
2023/08/29 03:56:01;;;;;;;2.07;1.97;;;;;;;23.25;73.37;98599.78;5110407;28;20202;-73
2023/08/29 03:58:27;;;;;;;14.90;1.90;;;;;;;23.24;73.47;98596.34;5112596;28;20573;-73
2023/08/29 04:00:54;;;;;;;1.93;1.80;;;;;;;23.21;73.12;98590.59;5111154;28;20681;-73
2023/08/29 04:03:23;;;;;;;2.03;1.83;;;;;;;23.21;73.26;98587.97;5111726;28;20205;-73
2023/08/29 04:05:49;;;;;;;3.10;2.20;;;;;;;23.19;73.82;98588.13;5111105;28;20203;-74
2023/08/29 04:08:16;;;;;;;2.10;2.00;;;;;;;23.18;73.82;98589.09;5110241;28;20223;-74
2023/08/29 04:10:44;;;;;;;2.47;2.37;;;;;;;23.14;74.08;98590.34;5110533;28;20201;-73
2023/08/29 04:13:11;;;;;;;1.40;1.40;;;;;;;23.11;74.08;98598.47;5109713;28;20218;-73
2023/08/29 04:15:38;;;;;;;4.53;1.90;;;;;;;23.13;73.59;98593.13;5118282;27;20281;-74
2023/08/29 04:18:06;;;;;;;2.07;1.97;;;;;;;23.12;73.97;98602.75;5110500;28;20206;-74
2023/08/29 04:20:35;;;;;;;1.97;1.87;;;;;;;23.14;73.60;98602.59;5111124;28;20206;-74
2023/08/29 04:23:02;;;;;;;3.43;1.73;;;;;;;23.11;73.65;98610.72;5108951;28;20246;-74
2023/08/29 04:25:29;;;;;;;2.80;2.23;;;;;;;23.12;73.04;98615.00;5109467;28;20194;-75
2023/08/29 04:27:56;;;;;;;1.80;1.70;;;;;;;23.15;73.32;98617.31;5110744;27;20186;-73
2023/08/29 04:30:23;;;;;;;6.03;1.50;;;;;;;23.17;73.07;98618.81;5109735;28;20275;-73
2023/08/29 04:32:50;;;;;;;1.70;1.60;;;;;;;23.19;73.71;98613.44;5105888;28;20206;-75
2023/08/29 04:35:18;;;;;;;5.67;1.77;;;;;;;23.24;73.70;98613.81;5108897;27;20199;-73
2023/08/29 04:37:48;;;;;;;2.07;1.97;;;;;;;23.31;74.37;98599.22;5108728;28;20195;-73
2023/08/29 04:40:17;;;;;;;1.70;1.60;;;;;;;23.32;72.77;98600.88;5108813;28;20221;-73
2023/08/29 04:42:44;;;;;;;4.20;1.90;;;;;;;23.42;72.31;98597.25;5107279;28;20210;-73
2023/08/29 04:45:11;;;;;;;1.80;1.77;;;;;;;23.48;72.42;98601.09;5109173;28;20198;-74
2023/08/29 04:47:38;;;;;;;6.00;2.43;;;;;;;23.58;72.01;98590.56;5107647;28;20636;-74
2023/08/29 04:50:06;;;;;;;1.43;1.40;;;;;;;23.71;70.95;98597.09;5109396;28;20203;-75
2023/08/29 04:52:34;;;;;;;1.73;1.63;;;;;;;23.79;70.93;98598.94;5107904;28;20298;-73
2023/08/29 04:55:05;;;;;;;2.07;1.90;;;;;;;23.91;70.82;98609.03;5108656;28;20570;-73
2023/08/29 04:57:33;;;;;;;2.63;2.23;;;;;;;24.04;70.02;98612.09;5108973;28;20210;-73
2023/08/29 05:00:00;;;;;;;2.37;2.27;;;;;;;24.19;69.17;98616.84;5106617;28;20195;-74
2023/08/29 05:02:29;;;;;;;2.37;2.13;;;;;;;24.30;68.87;98608.75;5108461;28;20279;-74
2023/08/29 05:04:57;;;;;;;2.13;2.03;;;;;;;24.39;68.25;98605.22;5107614;28;20195;-74
2023/08/29 05:07:24;;;;;;;2.30;1.47;;;;;;;24.55;66.98;98613.22;5108616;28;20222;-73
2023/08/29 05:09:51;;;;;;;1.90;1.80;;;;;;;24.59;66.45;98614.53;5108558;28;20731;-74
2023/08/29 05:12:19;;;;;;;2.23;1.97;;;;;;;24.67;66.14;98617.22;5106833;28;20577;-74
2023/08/29 05:14:47;;;;;;;4.30;2.10;;;;;;;24.80;66.86;98607.16;5109852;28;20234;-74
2023/08/29 05:17:14;;;;;;;1.70;1.60;;;;;;;24.84;65.42;98613.75;5109067;28;20273;-74
2023/08/29 05:19:41;;;;;;;2.23;2.10;;;;;;;24.82;66.21;98607.84;5109452;28;20195;-73
2023/08/29 05:22:08;;;;;;;1.60;1.50;;;;;;;24.90;66.35;98607.06;5109000;28;20596;-76
2023/08/29 05:24:35;;;;;;;2.27;2.07;;;;;;;25.01;65.16;98604.97;5108510;28;20190;-75
2023/08/29 05:27:02;;;;;;;1.77;1.67;;;;;;;25.10;64.44;98607.66;5107706;28;20198;-77
2023/08/29 05:29:30;;;;;;;2.97;2.00;;;;;;;25.15;64.71;98606.19;5108095;28;20215;-76
2023/08/29 05:31:57;;;;;;;2.17;2.07;;;;;;;25.32;64.38;98607.09;5107256;28;20281;-74
2023/08/29 05:34:24;;;;;;;2.47;2.37;;;;;;;25.23;63.58;98608.06;5108345;28;20202;-73
2023/08/29 05:36:51;;;;;;;1.87;1.77;;;;;;;25.39;64.04;98606.31;5107029;28;20573;-74
2023/08/29 05:39:19;;;;;;;2.53;2.43;;;;;;;25.47;63.60;98597.63;5109189;28;20186;-73
2023/08/29 05:41:46;;;;;;;1.77;1.67;;;;;;;25.42;63.26;98586.81;5109768;28;20234;-74
2023/08/29 05:44:13;;;;;;;3.30;2.03;;;;;;;25.58;63.79;98586.88;5108362;28;20199;-73
2023/08/29 05:46:41;;;;;;;2.13;2.03;;;;;;;25.63;64.20;98589.81;5108931;28;20198;-74
2023/08/29 05:49:08;;;;;;;4.73;1.97;;;;;;;25.70;62.28;98584.75;5107229;28;20566;-75
2023/08/29 05:51:35;;;;;;;3.07;2.00;;;;;;;25.86;62.13;98601.34;5108784;28;20319;-73
2023/08/29 05:54:02;;;;;;;2.20;2.10;;;;;;;25.87;61.40;98608.25;5107211;28;20198;-73
2023/08/29 05:56:29;;;;;;;2.63;2.33;;;;;;;25.71;62.02;98600.34;5105436;28;20569;-74
2023/08/29 05:58:56;;;;;;;2.27;2.17;;;;;;;25.97;62.33;98598.44;5107424;27;20199;-72
2023/08/29 06:01:23;;;;;;;2.70;1.77;;;;;;;26.22;60.42;98608.97;5113545;28;20672;-74
2023/08/29 06:03:52;;;;;;;3.20;1.63;;;;;;;26.24;60.20;98601.72;5112032;27;20704;-73
2023/08/29 06:06:19;;;;;;;2.00;1.90;;;;;;;26.41;60.34;98595.50;5109847;27;20195;-73
2023/08/29 06:08:46;;;;;;;2.10;2.00;;;;;;;26.44;59.74;98603.03;5111520;28;20336;-73
2023/08/29 06:11:13;;;;;;;2.50;2.33;;;;;;;26.55;59.63;98597.47;5112379;28;20210;-76
2023/08/29 06:13:40;;;;;;;2.13;1.70;;;;;;;26.57;59.80;98595.47;5106500;28;20190;-74
2023/08/29 06:16:07;;;;;;;2.40;2.20;;;;;;;26.76;59.13;98595.09;5105930;28;20249;-73
2023/08/29 06:18:34;;;;;;;3.17;2.97;;;;;;;27.02;56.98;98584.38;5108545;28;20222;-73
2023/08/29 06:21:06;;;;;;;5.13;4.63;;;;;;;27.07;57.12;98587.34;5109827;28;20220;-73
2023/08/29 06:23:34;;;;;;;9.87;5.03;;;;;;;27.08;55.89;98592.41;5116402;27;20341;-73
2023/08/29 06:26:02;;;;;;;13.60;6.67;;;;;;;26.96;55.76;98591.13;5112908;27;20243;-73
2023/08/29 06:28:29;;;;;;;12.17;7.50;;;;;;;27.10;56.38;98582.56;5111381;27;20665;-74
2023/08/29 06:30:56;;;;;;;7.67;6.90;;;;;;;27.04;55.48;98577.94;5110400;27;20228;-73
2023/08/29 06:33:23;;;;;;;8.70;7.83;;;;;;;27.25;57.81;98569.47;5111917;27;20195;-73
2023/08/29 06:35:50;;;;;;;12.53;7.57;;;;;;;27.53;57.15;98578.56;5111877;27;20202;-73
2023/08/29 06:38:18;;;;;;;9.20;6.83;;;;;;;27.78;56.01;98570.53;5109891;28;20195;-74
2023/08/29 06:40:45;;;;;;;8.13;7.07;;;;;;;28.01;54.55;98590.59;5113253;27;20194;-73
2023/08/29 06:43:12;;;;;;;12.33;6.53;;;;;;;28.15;53.77;98584.59;5109140;27;20225;-73
2023/08/29 06:45:39;;;;;;;9.30;6.83;;;;;;;28.31;53.03;98588.06;5111054;27;20195;-74
2023/08/29 06:48:06;;;;;;;8.70;6.37;;;;;;;28.42;53.13;98595.56;5111683;27;20194;-74
2023/08/29 06:50:34;;;;;;;6.97;6.47;;;;;;;28.45;51.24;98582.84;5111120;27;20214;-73
2023/08/29 06:53:03;;;;;;;8.93;7.60;;;;;;;28.66;51.89;98582.16;5116138;27;20638;-73
2023/08/29 06:55:34;;;;;;;7.93;7.05;;;;;;;28.64;50.98;98584.16;5112638;27;20245;-74
2023/08/29 06:58:02;;;;;;;8.53;7.10;;;;;;;28.65;51.34;98585.78;5116779;27;20194;-74
2023/08/29 07:00:29;;;;;;;12.07;7.53;;;;;;;28.70;50.77;98582.63;5116695;27;20209;-73
2023/08/29 07:02:56;;;;;;;9.13;6.93;;;;;;;28.73;51.13;98582.25;5115952;27;20223;-73
2023/08/29 07:05:23;;;;;;;10.05;6.60;;;;;;;28.82;52.02;98581.19;5111602;27;20206;-75
2023/08/29 07:07:50;;;;;;;7.30;6.03;;;;;;;29.11;50.02;98576.69;5105206;28;20314;-74
2023/08/29 07:10:17;;;;;;;5.38;4.88;;;;;;;29.29;50.18;98575.53;5110041;27;20195;-74
2023/08/29 07:12:46;;;;;;;6.50;5.90;;;;;;;29.46;49.92;98569.03;5109103;28;20201;-74
2023/08/29 07:15:13;;;;;;;8.82;7.65;;;;;;;29.60;48.99;98576.09;5111088;27;20256;-74
2023/08/29 07:17:43;;;;;;;9.77;6.95;;;;;;;29.82;48.63;98575.13;5110821;27;20202;-74
2023/08/29 07:20:10;;;;;;;8.55;6.82;;;;;;;30.14;46.94;98579.09;5111252;27;20285;-74
2023/08/29 07:22:40;;;;;;;7.60;6.22;;;;;;;30.42;46.15;98584.44;5113165;27;20218;-74
2023/08/29 07:25:07;;;;;;;9.77;5.57;;;;;;;30.50;45.56;98581.66;5110499;27;20203;-78
2023/08/29 07:27:34;;;;;;;12.10;5.28;;;;;;;30.65;44.77;98577.06;5109037;27;20222;-74
2023/08/29 07:30:03;;;;;;;5.15;4.20;;;;;;;30.72;45.52;98583.25;5108312;27;20195;-75
2023/08/29 07:32:30;;;;;;;4.18;3.88;;;;;;;31.00;45.44;98583.22;5116260;27;20208;-75
2023/08/29 07:34:57;;;;;;;4.57;4.28;;;;;;;31.24;46.22;98578.22;5110334;27;20203;-74
2023/08/29 07:37:24;;;;;;;5.13;4.78;;;;;;;31.35;44.05;98583.97;5107048;28;20756;-74
2023/08/29 07:39:51;;;;;;;6.43;5.15;;;;;;;31.59;44.51;98575.53;5110713;27;20282;-74
2023/08/29 07:42:18;;;;;;;6.43;5.72;;;;;;;31.64;42.31;98583.69;5117067;27;20210;-73
2023/08/29 07:44:45;;;;;;;8.23;6.32;;;;;;;31.18;42.57;98576.38;5110372;27;20203;-74
2023/08/29 07:47:13;;;;;;;5.10;4.60;;;;;;;31.10;43.89;98571.25;5112598;27;20199;-73
2023/08/29 07:49:39;;;;;;;6.30;5.10;;;;;;;31.38;45.13;98572.97;5108234;27;20248;-73
2023/08/29 07:52:07;;;;;;;5.55;5.03;;;;;;;31.58;42.97;98576.53;5113637;27;20195;-74
2023/08/29 07:54:33;;;;;;;5.07;4.68;;;;;;;31.73;43.98;98564.75;5109673;27;20203;-75
2023/08/29 07:57:00;;;;;;;4.78;4.43;;;;;;;31.86;43.65;98565.81;5111974;27;20256;-74
2023/08/29 07:59:27;;;;;;;4.85;4.45;;;;;;;31.87;43.14;98557.66;5111450;28;20663;-74
2023/08/29 08:01:54;;;;;;;4.82;4.53;;;;;;;32.10;41.82;98563.41;5110530;28;20206;-74
2023/08/29 08:04:22;;;;;;;5.57;4.63;;;;;;;32.38;41.74;98554.41;5108380;27;20316;-74
2023/08/29 08:06:49;;;;;;;3.45;3.25;;;;;;;32.71;40.78;98565.81;5106578;27;20219;-74
2023/08/29 08:09:17;;;;;;;5.95;4.07;;;;;;;32.31;41.39;98550.97;5111096;27;20191;-74
2023/08/29 08:11:44;;;;;;;4.32;4.03;;;;;;;32.33;41.76;98554.22;5116727;27;20198;-74
2023/08/29 08:14:11;;;;;;;7.75;4.03;;;;;;;32.17;41.68;98547.50;5111705;27;20206;-75
2023/08/29 08:16:38;;;;;;;5.38;3.78;;;;;;;32.38;41.86;98549.09;5110739;27;20199;-77
2023/08/29 08:19:05;;;;;;;3.72;3.53;;;;;;;32.24;42.09;98546.50;5110990;27;20187;-76
2023/08/29 08:21:33;;;;;;;4.88;3.80;;;;;;;32.32;42.24;98534.00;5110367;27;20195;-75
2023/08/29 08:24:01;;;;;;;3.78;3.53;;;;;;;32.24;41.54;98530.56;5114111;27;20239;-75
2023/08/29 08:26:28;;;;;;;3.50;3.40;;;;;;;32.48;42.29;98525.63;5111094;27;20769;-75
2023/08/29 08:28:55;;;;;;;3.70;3.42;;;;;;;32.32;40.81;98515.44;5111465;27;20203;-75
2023/08/29 08:31:24;;;;;;;4.68;4.38;;;;;;;31.96;42.38;98511.34;5116322;27;20584;-75
2023/08/29 08:33:51;;;;;;;6.65;4.80;;;;;;;32.05;41.79;98507.50;5111417;27;20190;-75
2023/08/29 08:36:19;;;;;;;5.80;5.03;;;;;;;32.29;41.65;98505.25;5113270;27;20202;-74
2023/08/29 08:38:47;;;;;;;5.53;5.03;;;;;;;32.47;41.50;98502.78;5111791;27;20247;-75
2023/08/29 08:41:18;;;;;;;5.75;5.35;;;;;;;32.65;41.59;98518.88;5110498;27;20220;-77
2023/08/29 08:43:46;;;;;;;8.80;5.78;;;;;;;32.74;40.67;98528.25;5111329;27;20215;-75
2023/08/29 08:46:17;;;;;;;5.47;4.85;;;;;;;32.82;40.82;98524.56;5110594;27;20199;-76
2023/08/29 08:48:43;;;;;;;6.28;4.95;;;;;;;32.84;39.60;98523.31;5106686;27;20627;-78
2023/08/29 08:51:12;;;;;;;5.50;4.95;;;;;;;32.65;40.32;98505.63;5108429;28;20191;-75
2023/08/29 08:53:41;;;;;;;5.75;4.32;;;;;;;32.61;40.27;98517.66;5111651;27;20563;-76
2023/08/29 08:56:09;;;;;;;4.28;3.90;;;;;;;32.39;40.01;98509.13;5109518;28;20248;-76
2023/08/29 08:58:37;;;;;;;3.20;3.00;;;;;;;32.38;38.98;98491.56;5109727;27;20194;-75
2023/08/29 09:01:04;;;;;;;2.53;2.28;;;;;;;32.29;40.19;98494.63;5108549;27;20199;-77
2023/08/29 09:03:30;;;;;;;3.05;2.85;;;;;;;32.49;40.69;98482.97;5109823;27;20211;-75
2023/08/29 09:05:57;;;;;;;5.70;2.67;;;;;;;32.85;40.13;98482.47;5110395;28;20583;-76
2023/08/29 09:08:24;;;;;;;2.75;2.65;;;;;;;32.89;39.52;98488.19;5111093;27;20736;-76
2023/08/29 09:10:53;;;;;;;3.30;3.00;;;;;;;32.95;39.03;98487.34;5110306;27;20206;-76
2023/08/29 09:13:22;;;;;;;3.00;2.80;;;;;;;33.04;38.82;98473.59;5105677;28;20294;-76
2023/08/29 09:15:48;;;;;;;3.03;2.83;;;;;;;33.24;38.68;98466.38;5110201;28;20581;-76
2023/08/29 09:18:24;;;;;;;4.72;2.70;;;;;;;33.13;37.88;98469.69;5110849;27;20210;-76
2023/08/29 09:20:52;;;;;;;2.58;2.47;;;;;;;33.03;38.22;98469.31;5109797;28;20765;-75
2023/08/29 09:23:23;;;;;;;3.20;3.00;;;;;;;33.11;40.01;98462.97;5114291;27;20840;-77
2023/08/29 09:25:55;;;;;;;2.03;1.92;;;;;;;33.43;39.97;98447.88;5111198;28;20194;-76
2023/08/29 09:28:27;;;;;;;2.67;2.47;;;;;;;33.73;39.72;98455.00;5109181;28;20201;-76
2023/08/29 09:30:54;;;;;;;1.92;1.83;;;;;;;33.57;38.81;98457.38;5109678;28;20202;-76
2023/08/29 09:33:23;;;;;;;2.45;1.88;;;;;;;33.62;38.58;98446.94;5109021;28;20271;-75
2023/08/29 09:35:53;;;;;;;2.33;1.95;;;;;;;33.76;38.65;98432.50;5109567;28;20256;-76
2023/08/29 09:38:20;;;;;;;1.83;1.73;;;;;;;33.55;38.02;98438.16;5110548;28;20736;-76
2023/08/29 09:40:47;;;;;;;2.00;1.73;;;;;;;33.56;39.71;98437.13;5108424;28;20674;-79
2023/08/29 09:43:16;;;;;;;2.08;1.98;;;;;;;33.56;38.82;98432.63;5106599;28;20746;-76
2023/08/29 09:45:49;;;;;;;2.00;1.90;;;;;;;33.73;39.23;98427.63;5106410;28;20195;-76
2023/08/29 09:48:18;;;;;;;2.22;1.55;;;;;;;33.70;39.62;98420.09;5110776;28;20288;-77
2023/08/29 09:50:45;;;;;;;1.83;1.73;;;;;;;33.62;38.44;98412.38;5106002;28;20652;-76
2023/08/29 09:53:15;;;;;;;1.98;1.88;;;;;;;33.62;39.35;98415.03;5107905;28;20260;-77
2023/08/29 09:55:45;;;;;;;2.28;2.05;;;;;;;33.94;39.54;98411.25;5107579;28;20213;-78
2023/08/29 09:58:14;;;;;;;1.75;1.65;;;;;;;34.17;39.37;98414.13;5111086;27;20256;-77
2023/08/29 10:00:41;;;;;;;1.80;1.70;;;;;;;34.21;38.80;98412.66;5112858;27;20202;-77
2023/08/29 10:03:11;;;;;;;2.25;1.50;;;;;;;34.21;37.60;98403.88;5112728;27;20265;-77
2023/08/29 10:05:40;;;;;;;3.17;1.45;;;;;;;34.31;38.60;98403.34;5110327;27;20626;-77
2023/08/29 10:08:16;;;;;;;2.33;1.75;;;;;;;34.38;39.35;98390.78;5112881;27;20225;-77
2023/08/29 10:10:44;;;;;;;2.42;1.73;;;;;;;34.30;38.98;98389.22;5108069;27;20217;-76
2023/08/29 10:13:11;;;;;;;2.03;1.83;;;;;;;34.48;38.25;98380.41;5112954;27;20271;-77
2023/08/29 10:15:41;;;;;;;2.83;1.55;;;;;;;34.65;38.14;98358.31;5111460;27;20207;-77
2023/08/29 10:18:11;;;;;;;1.80;1.70;;;;;;;34.75;37.39;98368.41;5111034;27;20194;-77
2023/08/29 10:20:43;;;;;;;9.52;1.90;;;;;;;34.48;36.79;98351.13;5110246;28;20199;-77
2023/08/29 10:23:12;;;;;;;2.50;1.52;;;;;;;34.81;36.73;98351.53;5113233;27;20673;-77
2023/08/29 10:25:39;;;;;;;1.58;1.50;;;;;;;35.02;36.09;98340.38;5114032;27;20669;-76
2023/08/29 10:28:09;;;;;;;2.08;1.92;;;;;;;34.83;37.05;98346.81;5110102;27;20202;-77
2023/08/29 10:30:39;;;;;;;1.65;1.55;;;;;;;34.76;36.98;98341.59;5111944;27;20290;-76
2023/08/29 10:33:07;;;;;;;1.90;1.80;;;;;;;35.07;36.31;98337.84;5109050;27;20196;-77
2023/08/29 10:35:35;;;;;;;1.90;1.80;;;;;;;35.31;35.57;98333.41;5111570;27;20195;-76
2023/08/29 10:38:07;;;;;;;2.40;2.30;;;;;;;35.34;35.09;98329.44;5112517;27;20199;-76
2023/08/29 10:40:35;;;;;;;14.93;2.90;;;;;;;35.46;34.66;98322.25;5111741;27;20195;-77
2023/08/29 10:43:03;;;;;;;4.35;1.95;;;;;;;35.70;35.11;98327.41;5111531;27;20187;-76
2023/08/29 10:45:57;;;;;;;2.25;2.15;;;;;;;36.08;33.67;98318.91;5113100;27;20198;-77
2023/08/29 10:48:51;;;;;;;1.83;1.73;;;;;;;36.25;33.15;98310.97;5089763;27;20202;-76
2023/08/29 10:51:24;;;;;;;2.13;1.65;;;;;;;36.31;32.88;98310.84;5108385;28;20203;-76
2023/08/29 10:53:53;;;;;;;2.38;2.28;;;;;;;36.25;32.68;98317.09;5112134;27;20746;-76
2023/08/29 10:56:23;;;;;;;4.57;2.10;;;;;;;36.32;31.88;98311.63;5115151;27;20198;-76
2023/08/29 10:58:51;;;;;;;1.58;1.48;;;;;;;36.30;32.01;98305.72;5110425;27;20290;-76
2023/08/29 11:01:31;;;;;;;1.30;1.20;;;;;;;36.29;32.16;98304.91;5113070;27;20199;-77
2023/08/29 11:03:59;;;;;;;2.47;1.63;;;;;;;36.19;31.88;98307.38;5111510;27;20777;-76
2023/08/29 11:06:48;;;;;;;1.80;1.70;;;;;;;36.24;32.87;98294.16;5112465;27;20244;-76
2023/08/29 11:09:20;;;;;;;1.80;1.60;;;;;;;36.26;34.17;98291.22;5113685;27;20202;-75
2023/08/29 11:12:06;;;;;;;1.45;1.42;;;;;;;36.35;32.85;98289.00;5113213;27;20740;-76
2023/08/29 11:14:52;;;;;;;1.52;1.52;;;;;;;36.51;33.06;98278.38;5112352;27;20194;-76
2023/08/29 11:17:23;;;;;;;1.75;1.65;;;;;;;36.45;32.37;98267.84;5112781;27;20203;-77
2023/08/29 11:19:52;;;;;;;2.03;1.83;;;;;;;36.51;33.20;98262.34;5111668;27;20209;-76
2023/08/29 11:22:22;;;;;;;1.90;1.63;;;;;;;36.68;32.41;98268.53;5112686;27;20248;-76
2023/08/29 11:24:54;;;;;;;1.85;1.75;;;;;;;36.70;32.00;98271.00;5111062;28;20306;-75
2023/08/29 11:27:22;;;;;;;1.95;1.85;;;;;;;36.78;32.66;98283.94;5110784;27;20674;-76
2023/08/29 11:29:49;;;;;;;2.13;1.92;;;;;;;36.89;32.61;98280.41;5111833;28;20278;-76
2023/08/29 11:32:19;;;;;;;1.55;1.52;;;;;;;36.80;30.72;98263.16;5112082;28;20194;-76
2023/08/29 11:34:46;;;;;;;1.52;1.48;;;;;;;36.15;33.23;98250.22;5116277;27;20202;-74
2023/08/29 11:37:13;;;;;;;2.08;1.88;;;;;;;36.22;33.91;98266.88;5111747;27;20202;-76
2023/08/29 11:39:41;;;;;;;1.45;1.35;;;;;;;36.26;33.92;98275.22;5111541;28;20202;-76